Oak Hill, WV

10:00 PM EST on November 23, 2014 (GMT -0500)
F.I.T. - Oyler Ave. | Change Station
CLOSE
Current Station
Personal Weather Station
Location: Oak Hill, WV
Elevation: 1988 ft
Nearby Weather Stations
Active Advisory: Wind Advisory Active Notice: Public Information Statement

Elev 1988 ft 37.99 °N, 81.15 °W | Updated 2 seconds ago

Rain
Rain
54.6 °F
Feels Like 54.6 °F
N
0.0
Wind Variable Wind from South
Gusts 0.0 mph

Today
High -- | Low -- °F
--% Chance of Precip.
Yesterday
High -- | Low -- °F
Precip. -- in
7:13 AM 5:07 PM
Waxing Crescent, 3% visible
Pressure 29.61 in
Visibility 8.0 miles
Clouds Few 1100 ft
Mostly Cloudy 6500 ft
Overcast 9500 ft
Dew Point 52 °F
Humidity 92%
Rainfall 0.05 in
Snow Depth Not available.
UV 0 out of 12
Pollen .10 out of 12
Air Quality Not available.
Flu Activity Not available.
METAR KBKW 240251Z AUTO 14020G35KT 8SM -RA FEW011 BKN065 OVC095 11/09 A2963 RMK AO2 PK WND 15036/0218 SLP027 P0007 60021 T01110089 56044

More Conditions Fewer Conditions

Pressure 29.61 in
Visibility 8.0 miles
Clouds Few 1100 ft
Mostly Cloudy 6500 ft
Overcast 9500 ft
Dew Point 52 °F
Humidity 92%
Rainfall 0.05 in
Snow Depth Not available.
UV 0 out of 12
Pollen .10 out of 12
Air Quality Not available.
Flu Activity Not available.
METAR KBKW 240251Z AUTO 14020G35KT 8SM -RA FEW011 BKN065 OVC095 11/09 A2963 RMK AO2 PK WND 15036/0218 SLP027 P0007 60021 T01110089 56044

More Conditions Fewer Conditions

10-Day Weather Forecast

Almanac

Astronomy

Nov. 23, 2014 Rise Set
Actual Time
Civil Twilight
Nautical Twilight
Astronomical Twilight
Moon
Length of Visible Light
Length of Day
Tomorrow will be .
, % of the Moon is Illuminated

Today's Extremes

State Highs State Lows

Community

WunderPhotos

Upload Photos

1,773,257 photos uploaded!

WunderBlogs® & News

Nearby

Air Quality

  Air Quality AQ Index Pollutant
Not available.

Snow Depth

Station Depth Elevation

Earthquake Activity

City Distance Mag. Time & Date
Minimum magnitude displayed is 2.5.

Coastal Water Temperatures

Place Temperature

Nearby Weather Stations